sensor_id;sensor_type;location;lat;lon;timestamp;pressure;altitude;pressure_sealevel;temperature;humidity
37066;BME280;22981;43.080;25.550;2023-05-08T00:02:05;99693.58;;;14.99;50.75
37066;BME280;22981;43.080;25.550;2023-05-08T00:04:32;99694.88;;;14.96;50.74
37066;BME280;22981;43.080;25.550;2023-05-08T00:07:00;99700.52;;;14.95;50.73
37066;BME280;22981;43.080;25.550;2023-05-08T00:09:27;99698.30;;;14.92;50.74
37066;BME280;22981;43.080;25.550;2023-05-08T00:11:55;99700.71;;;14.91;50.54
37066;BME280;22981;43.080;25.550;2023-05-08T00:14:22;99700.41;;;14.90;50.27
37066;BME280;22981;43.080;25.550;2023-05-08T00:16:50;99699.11;;;14.92;50.09
37066;BME280;22981;43.080;25.550;2023-05-08T00:19:17;99698.10;;;14.96;49.79
37066;BME280;22981;43.080;25.550;2023-05-08T00:21:45;99698.13;;;14.98;49.27
37066;BME280;22981;43.080;25.550;2023-05-08T00:24:12;99700.09;;;15.03;48.98
37066;BME280;22981;43.080;25.550;2023-05-08T00:26:40;99699.62;;;15.06;48.63
37066;BME280;22981;43.080;25.550;2023-05-08T00:29:09;99696.92;;;15.06;48.46
37066;BME280;22981;43.080;25.550;2023-05-08T00:31:37;99692.93;;;15.09;48.12
37066;BME280;22981;43.080;25.550;2023-05-08T00:34:04;99692.40;;;15.09;47.88
37066;BME280;22981;43.080;25.550;2023-05-08T00:36:32;99685.12;;;15.10;47.73
37066;BME280;22981;43.080;25.550;2023-05-08T00:38:59;99688.36;;;15.09;47.66
37066;BME280;22981;43.080;25.550;2023-05-08T00:41:27;99685.38;;;15.08;47.64
37066;BME280;22981;43.080;25.550;2023-05-08T00:43:54;99686.19;;;15.09;47.62
37066;BME280;22981;43.080;25.550;2023-05-08T00:46:22;99685.60;;;15.07;47.46
37066;BME280;22981;43.080;25.550;2023-05-08T00:48:50;99686.67;;;15.06;47.45
37066;BME280;22981;43.080;25.550;2023-05-08T00:51:17;99685.69;;;14.95;47.72
37066;BME280;22981;43.080;25.550;2023-05-08T00:53:45;99686.42;;;14.90;48.06
37066;BME280;22981;43.080;25.550;2023-05-08T00:56:14;99687.63;;;14.83;48.27
37066;BME280;22981;43.080;25.550;2023-05-08T00:58:43;99695.47;;;14.70;48.98
37066;BME280;22981;43.080;25.550;2023-05-08T01:01:11;99689.50;;;14.53;50.15
37066;BME280;22981;43.080;25.550;2023-05-08T01:03:38;99691.65;;;14.28;51.44
37066;BME280;22981;43.080;25.550;2023-05-08T01:06:06;99695.54;;;14.09;52.52
37066;BME280;22981;43.080;25.550;2023-05-08T01:08:34;99701.78;;;13.86;53.50
37066;BME280;22981;43.080;25.550;2023-05-08T01:11:16;99709.98;;;13.67;54.38
37066;BME280;22981;43.080;25.550;2023-05-08T01:16:27;99705.17;;;13.46;55.68
37066;BME280;22981;43.080;25.550;2023-05-08T01:18:58;99699.36;;;13.40;56.23
37066;BME280;22981;43.080;25.550;2023-05-08T01:21:34;99701.81;;;13.30;56.58
37066;BME280;22981;43.080;25.550;2023-05-08T01:27:39;99703.87;;;13.16;57.31
37066;BME280;22981;43.080;25.550;2023-05-08T01:30:11;99699.07;;;12.97;57.73
37066;BME280;22981;43.080;25.550;2023-05-08T01:32:38;99699.39;;;12.89;58.07
37066;BME280;22981;43.080;25.550;2023-05-08T01:35:20;99699.66;;;12.78;58.31
37066;BME280;22981;43.080;25.550;2023-05-08T01:37:54;99694.61;;;12.70;58.68
37066;BME280;22981;43.080;25.550;2023-05-08T01:40:27;99699.61;;;12.66;58.99
37066;BME280;22981;43.080;25.550;2023-05-08T01:43:02;99697.90;;;12.63;59.12
37066;BME280;22981;43.080;25.550;2023-05-08T01:45:37;99701.50;;;12.57;59.38
37066;BME280;22981;43.080;25.550;2023-05-08T01:48:06;99704.36;;;12.43;59.79
37066;BME280;22981;43.080;25.550;2023-05-08T01:50:35;99700.20;;;12.38;60.05
37066;BME280;22981;43.080;25.550;2023-05-08T01:53:15;99696.53;;;12.33;60.39
37066;BME280;22981;43.080;25.550;2023-05-08T01:55:36;99698.63;;;12.31;60.51
37066;BME280;22981;43.080;25.550;2023-05-08T01:58:06;99705.21;;;12.16;60.80
37066;BME280;22981;43.080;25.550;2023-05-08T02:00:34;99707.87;;;12.07;61.17
37066;BME280;22981;43.080;25.550;2023-05-08T02:03:05;99699.91;;;12.00;61.40
37066;BME280;22981;43.080;25.550;2023-05-08T02:05:36;99695.80;;;11.98;61.54
37066;BME280;22981;43.080;25.550;2023-05-08T02:08:05;99697.66;;;11.97;61.65
37066;BME280;22981;43.080;25.550;2023-05-08T02:10:34;99697.89;;;11.96;61.80
37066;BME280;22981;43.080;25.550;2023-05-08T02:13:03;99691.62;;;11.93;61.87
37066;BME280;22981;43.080;25.550;2023-05-08T02:15:33;99708.94;;;11.81;62.05
37066;BME280;22981;43.080;25.550;2023-05-08T02:18:04;99699.39;;;11.67;62.46
37066;BME280;22981;43.080;25.550;2023-05-08T02:20:32;99696.61;;;11.64;62.64
37066;BME280;22981;43.080;25.550;2023-05-08T02:23:00;99696.55;;;11.62;62.76
37066;BME280;22981;43.080;25.550;2023-05-08T02:25:29;99694.16;;;11.63;62.79
37066;BME280;22981;43.080;25.550;2023-05-08T02:27:57;99695.41;;;11.60;63.13
37066;BME280;22981;43.080;25.550;2023-05-08T02:30:25;99690.66;;;11.62;63.18
37066;BME280;22981;43.080;25.550;2023-05-08T02:32:55;99696.61;;;11.64;63.04
37066;BME280;22981;43.080;25.550;2023-05-08T02:35:23;99692.83;;;11.63;63.03
37066;BME280;22981;43.080;25.550;2023-05-08T02:37:54;99694.44;;;11.54;63.25
37066;BME280;22981;43.080;25.550;2023-05-08T02:40:25;99687.68;;;11.52;63.34
37066;BME280;22981;43.080;25.550;2023-05-08T02:42:53;99688.63;;;11.48;63.30
37066;BME280;22981;43.080;25.550;2023-05-08T02:45:24;99692.17;;;11.42;63.52
37066;BME280;22981;43.080;25.550;2023-05-08T02:48:11;99688.91;;;11.40;63.61
37066;BME280;22981;43.080;25.550;2023-05-08T02:53:31;99696.79;;;11.35;63.81
37066;BME280;22981;43.080;25.550;2023-05-08T02:56:10;99695.78;;;11.29;63.88
37066;BME280;22981;43.080;25.550;2023-05-08T02:58:51;99698.46;;;11.29;63.92
37066;BME280;22981;43.080;25.550;2023-05-08T03:01:28;99698.17;;;11.28;63.95
37066;BME280;22981;43.080;25.550;2023-05-08T03:04:08;99695.47;;;11.19;64.02
37066;BME280;22981;43.080;25.550;2023-05-08T03:06:39;99705.20;;;11.14;64.17
37066;BME280;22981;43.080;25.550;2023-05-08T03:09:02;99702.27;;;11.06;64.32
37066;BME280;22981;43.080;25.550;2023-05-08T03:11:36;99705.76;;;11.07;64.40
37066;BME280;22981;43.080;25.550;2023-05-08T03:14:03;99705.49;;;10.99;64.50
37066;BME280;22981;43.080;25.550;2023-05-08T03:16:33;99702.00;;;10.98;64.56
37066;BME280;22981;43.080;25.550;2023-05-08T03:19:11;99709.22;;;10.98;64.63
37066;BME280;22981;43.080;25.550;2023-05-08T03:21:33;99706.02;;;10.98;64.67
37066;BME280;22981;43.080;25.550;2023-05-08T03:24:03;99704.25;;;11.01;64.70
37066;BME280;22981;43.080;25.550;2023-05-08T03:26:32;99711.55;;;11.03;64.75
37066;BME280;22981;43.080;25.550;2023-05-08T03:29:01;99703.34;;;10.98;64.84
37066;BME280;22981;43.080;25.550;2023-05-08T03:31:30;99708.23;;;10.92;64.97
37066;BME280;22981;43.080;25.550;2023-05-08T03:33:58;99713.52;;;10.83;65.26
37066;BME280;22981;43.080;25.550;2023-05-08T03:36:27;99714.69;;;10.78;65.41
37066;BME280;22981;43.080;25.550;2023-05-08T03:38:54;99706.48;;;10.73;65.68
37066;BME280;22981;43.080;25.550;2023-05-08T03:41:23;99715.03;;;10.72;65.76
37066;BME280;22981;43.080;25.550;2023-05-08T03:43:52;99713.70;;;10.72;65.78
37066;BME280;22981;43.080;25.550;2023-05-08T03:46:21;99713.70;;;10.72;65.86
37066;BME280;22981;43.080;25.550;2023-05-08T03:48:50;99719.30;;;10.64;66.00
37066;BME280;22981;43.080;25.550;2023-05-08T03:51:18;99719.77;;;10.55;66.30
37066;BME280;22981;43.080;25.550;2023-05-08T03:53:45;99719.84;;;10.57;66.39
37066;BME280;22981;43.080;25.550;2023-05-08T03:56:13;99719.19;;;10.62;66.36
37066;BME280;22981;43.080;25.550;2023-05-08T03:59:13;99731.22;;;10.68;66.37
37066;BME280;22981;43.080;25.550;2023-05-08T04:01:59;99728.25;;;10.67;66.46
37066;BME280;22981;43.080;25.550;2023-05-08T04:04:31;99734.08;;;10.73;66.34
37066;BME280;22981;43.080;25.550;2023-05-08T04:07:02;99722.44;;;10.70;66.38
37066;BME280;22981;43.080;25.550;2023-05-08T04:09:42;99722.08;;;10.67;66.62
37066;BME280;22981;43.080;25.550;2023-05-08T04:12:22;99735.66;;;10.65;66.87
37066;BME280;22981;43.080;25.550;2023-05-08T04:14:52;99729.41;;;10.62;66.87
37066;BME280;22981;43.080;25.550;2023-05-08T04:17:33;99735.88;;;10.64;67.05
37066;BME280;22981;43.080;25.550;2023-05-08T04:19:59;99736.92;;;10.63;67.23
37066;BME280;22981;43.080;25.550;2023-05-08T04:22:28;99738.33;;;10.65;67.28
37066;BME280;22981;43.080;25.550;2023-05-08T04:24:59;99739.77;;;10.68;67.30
37066;BME280;22981;43.080;25.550;2023-05-08T04:27:28;99733.60;;;10.67;67.39
37066;BME280;22981;43.080;25.550;2023-05-08T04:29:56;99742.75;;;10.69;67.51
37066;BME280;22981;43.080;25.550;2023-05-08T04:32:26;99738.39;;;10.74;67.61
37066;BME280;22981;43.080;25.550;2023-05-08T04:34:54;99742.61;;;10.80;67.63
37066;BME280;22981;43.080;25.550;2023-05-08T04:37:26;99733.16;;;10.93;67.66
37066;BME280;22981;43.080;25.550;2023-05-08T04:39:54;99734.54;;;11.02;67.54
37066;BME280;22981;43.080;25.550;2023-05-08T04:42:21;99735.82;;;11.09;67.54
37066;BME280;22981;43.080;25.550;2023-05-08T04:44:51;99733.23;;;11.11;67.49
37066;BME280;22981;43.080;25.550;2023-05-08T04:47:20;99736.09;;;11.16;67.61
37066;BME280;22981;43.080;25.550;2023-05-08T04:49:49;99738.86;;;11.19;67.64
37066;BME280;22981;43.080;25.550;2023-05-08T04:52:17;99734.71;;;11.23;67.57
37066;BME280;22981;43.080;25.550;2023-05-08T04:54:44;99735.10;;;11.26;67.48
37066;BME280;22981;43.080;25.550;2023-05-08T04:57:12;99736.31;;;11.31;67.47
37066;BME280;22981;43.080;25.550;2023-05-08T04:59:40;99727.00;;;11.33;67.44
37066;BME280;22981;43.080;25.550;2023-05-08T05:02:07;99727.39;;;11.37;67.52
37066;BME280;22981;43.080;25.550;2023-05-08T05:04:35;99724.05;;;11.41;67.53
37066;BME280;22981;43.080;25.550;2023-05-08T05:07:03;99726.33;;;11.53;67.43
37066;BME280;22981;43.080;25.550;2023-05-08T05:09:31;99730.27;;;11.60;67.25
37066;BME280;22981;43.080;25.550;2023-05-08T05:12:00;99728.36;;;11.67;67.11
37066;BME280;22981;43.080;25.550;2023-05-08T05:14:27;99726.16;;;11.73;66.96
37066;BME280;22981;43.080;25.550;2023-05-08T05:16:55;99722.34;;;11.81;67.02
37066;BME280;22981;43.080;25.550;2023-05-08T05:19:22;99728.28;;;11.90;66.96
37066;BME280;22981;43.080;25.550;2023-05-08T05:21:50;99721.66;;;12.01;66.78
37066;BME280;22981;43.080;25.550;2023-05-08T05:24:17;99717.44;;;12.12;66.65
37066;BME280;22981;43.080;25.550;2023-05-08T05:26:45;99719.97;;;12.25;66.58
37066;BME280;22981;43.080;25.550;2023-05-08T05:29:13;99719.71;;;12.45;66.20
37066;BME280;22981;43.080;25.550;2023-05-08T05:31:40;99717.70;;;12.59;65.84
37066;BME280;22981;43.080;25.550;2023-05-08T05:34:08;99715.97;;;12.65;65.67
37066;BME280;22981;43.080;25.550;2023-05-08T05:36:35;99711.83;;;12.71;65.49
37066;BME280;22981;43.080;25.550;2023-05-08T05:39:03;99712.05;;;12.79;65.38
37066;BME280;22981;43.080;25.550;2023-05-08T05:41:30;99713.75;;;12.83;65.09
37066;BME280;22981;43.080;25.550;2023-05-08T05:43:58;99710.67;;;12.88;65.00
37066;BME280;22981;43.080;25.550;2023-05-08T05:46:26;99708.84;;;13.00;64.88
37066;BME280;22981;43.080;25.550;2023-05-08T05:48:55;99705.83;;;13.09;64.65
37066;BME280;22981;43.080;25.550;2023-05-08T05:51:22;99701.92;;;13.14;64.41
37066;BME280;22981;43.080;25.550;2023-05-08T05:53:50;99705.50;;;13.17;64.44
37066;BME280;22981;43.080;25.550;2023-05-08T05:56:18;99700.56;;;13.23;64.48
37066;BME280;22981;43.080;25.550;2023-05-08T05:58:46;99702.30;;;13.38;64.45
37066;BME280;22981;43.080;25.550;2023-05-08T06:01:14;99699.67;;;13.52;64.54
37066;BME280;22981;43.080;25.550;2023-05-08T06:03:42;99695.89;;;13.63;64.36
37066;BME280;22981;43.080;25.550;2023-05-08T06:06:10;99693.95;;;13.72;64.09
37066;BME280;22981;43.080;25.550;2023-05-08T06:08:37;99694.48;;;13.84;64.15
37066;BME280;22981;43.080;25.550;2023-05-08T06:11:05;99685.20;;;14.03;63.97
37066;BME280;22981;43.080;25.550;2023-05-08T06:13:33;99685.54;;;14.18;63.63
37066;BME280;22981;43.080;25.550;2023-05-08T06:16:00;99681.41;;;14.27;63.60
37066;BME280;22981;43.080;25.550;2023-05-08T06:18:28;99683.02;;;14.40;63.43
37066;BME280;22981;43.080;25.550;2023-05-08T06:20:57;99683.52;;;14.51;63.29
37066;BME280;22981;43.080;25.550;2023-05-08T06:23:25;99682.41;;;14.64;63.01
37066;BME280;22981;43.080;25.550;2023-05-08T06:25:53;99686.13;;;14.75;62.91
37066;BME280;22981;43.080;25.550;2023-05-08T06:28:20;99689.06;;;14.88;62.76
37066;BME280;22981;43.080;25.550;2023-05-08T06:30:49;99686.59;;;15.00;62.55
37066;BME280;22981;43.080;25.550;2023-05-08T06:33:17;99682.51;;;15.15;62.50
37066;BME280;22981;43.080;25.550;2023-05-08T06:35:46;99677.60;;;15.28;62.27
37066;BME280;22981;43.080;25.550;2023-05-08T06:38:13;99678.66;;;15.42;62.13
37066;BME280;22981;43.080;25.550;2023-05-08T06:40:44;99675.30;;;15.54;61.87
37066;BME280;22981;43.080;25.550;2023-05-08T06:43:13;99676.32;;;15.65;61.56
37066;BME280;22981;43.080;25.550;2023-05-08T06:45:42;99675.16;;;15.77;61.36
37066;BME280;22981;43.080;25.550;2023-05-08T06:48:10;99672.38;;;15.92;61.25
37066;BME280;22981;43.080;25.550;2023-05-08T06:50:39;99666.37;;;16.07;61.07
37066;BME280;22981;43.080;25.550;2023-05-08T06:53:07;99660.06;;;16.23;60.89
37066;BME280;22981;43.080;25.550;2023-05-08T06:55:35;99661.12;;;16.44;60.68
37066;BME280;22981;43.080;25.550;2023-05-08T06:58:02;99651.63;;;16.66;60.36
37066;BME280;22981;43.080;25.550;2023-05-08T07:00:30;99651.09;;;16.88;59.90
37066;BME280;22981;43.080;25.550;2023-05-08T07:02:57;99655.88;;;17.11;58.93
37066;BME280;22981;43.080;25.550;2023-05-08T07:05:25;99651.66;;;17.22;57.96
37066;BME280;22981;43.080;25.550;2023-05-08T07:07:53;99650.06;;;17.29;57.54
37066;BME280;22981;43.080;25.550;2023-05-08T07:10:23;99649.62;;;17.42;57.41
37066;BME280;22981;43.080;25.550;2023-05-08T07:12:51;99656.47;;;17.55;57.04
37066;BME280;22981;43.080;25.550;2023-05-08T07:15:19;99667.14;;;17.69;56.47
37066;BME280;22981;43.080;25.550;2023-05-08T07:17:47;99655.30;;;17.81;55.98
37066;BME280;22981;43.080;25.550;2023-05-08T07:20:15;99651.58;;;17.92;55.61
37066;BME280;22981;43.080;25.550;2023-05-08T07:22:42;99648.66;;;18.06;55.33
37066;BME280;22981;43.080;25.550;2023-05-08T07:25:10;99646.84;;;18.22;54.67
37066;BME280;22981;43.080;25.550;2023-05-08T07:27:38;99649.05;;;18.35;54.45
37066;BME280;22981;43.080;25.550;2023-05-08T07:30:06;99649.61;;;18.45;54.42
37066;BME280;22981;43.080;25.550;2023-05-08T07:32:34;99648.03;;;18.57;53.79
37066;BME280;22981;43.080;25.550;2023-05-08T07:35:02;99649.93;;;18.61;53.59
37066;BME280;22981;43.080;25.550;2023-05-08T07:37:31;99644.53;;;18.69;53.34
37066;BME280;22981;43.080;25.550;2023-05-08T07:39:59;99640.78;;;18.78;52.93
37066;BME280;22981;43.080;25.550;2023-05-08T07:42:26;99636.46;;;18.89;52.69
37066;BME280;22981;43.080;25.550;2023-05-08T07:44:54;99636.19;;;19.04;52.29
37066;BME280;22981;43.080;25.550;2023-05-08T07:47:22;99635.64;;;19.17;51.93
37066;BME280;22981;43.080;25.550;2023-05-08T07:49:49;99632.09;;;19.26;51.65
37066;BME280;22981;43.080;25.550;2023-05-08T07:52:17;99625.05;;;19.33;50.46
37066;BME280;22981;43.080;25.550;2023-05-08T07:54:45;99625.30;;;19.39;49.86
37066;BME280;22981;43.080;25.550;2023-05-08T07:57:13;99623.95;;;19.49;50.01
37066;BME280;22981;43.080;25.550;2023-05-08T07:59:40;99629.64;;;19.61;49.49
37066;BME280;22981;43.080;25.550;2023-05-08T08:02:08;99627.72;;;19.69;49.33
37066;BME280;22981;43.080;25.550;2023-05-08T08:04:35;99629.33;;;19.80;49.19
37066;BME280;22981;43.080;25.550;2023-05-08T08:07:03;99629.31;;;19.88;48.97
37066;BME280;22981;43.080;25.550;2023-05-08T08:09:30;99621.11;;;19.98;48.73
37066;BME280;22981;43.080;25.550;2023-05-08T08:11:58;99618.89;;;20.10;48.84
37066;BME280;22981;43.080;25.550;2023-05-08T08:14:26;99618.84;;;20.23;48.35
37066;BME280;22981;43.080;25.550;2023-05-08T08:16:54;99622.55;;;20.40;47.58
37066;BME280;22981;43.080;25.550;2023-05-08T08:19:21;99617.84;;;20.61;47.97
37066;BME280;22981;43.080;25.550;2023-05-08T08:21:49;99618.22;;;20.83;47.55
37066;BME280;22981;43.080;25.550;2023-05-08T08:24:17;99618.58;;;21.08;47.40
37066;BME280;22981;43.080;25.550;2023-05-08T08:26:45;99615.68;;;21.29;47.41
37066;BME280;22981;43.080;25.550;2023-05-08T08:29:12;99612.27;;;21.44;47.70
37066;BME280;22981;43.080;25.550;2023-05-08T08:31:40;99611.57;;;21.60;47.45
37066;BME280;22981;43.080;25.550;2023-05-08T08:34:07;99614.71;;;21.72;47.24
37066;BME280;22981;43.080;25.550;2023-05-08T08:36:35;99617.14;;;21.74;46.35
37066;BME280;22981;43.080;25.550;2023-05-08T08:39:03;99614.17;;;21.70;45.76
37066;BME280;22981;43.080;25.550;2023-05-08T08:41:31;99620.48;;;21.68;45.42
37066;BME280;22981;43.080;25.550;2023-05-08T08:43:58;99613.19;;;21.61;45.60
37066;BME280;22981;43.080;25.550;2023-05-08T08:46:27;99612.08;;;21.62;45.63
37066;BME280;22981;43.080;25.550;2023-05-08T08:48:55;99610.88;;;21.73;46.07
37066;BME280;22981;43.080;25.550;2023-05-08T08:51:33;99615.86;;;21.90;46.62
37066;BME280;22981;43.080;25.550;2023-05-08T08:54:03;99605.30;;;22.08;46.84
37066;BME280;22981;43.080;25.550;2023-05-08T08:56:31;99608.95;;;22.22;46.88
37066;BME280;22981;43.080;25.550;2023-05-08T08:59:01;99605.80;;;22.34;46.63
37066;BME280;22981;43.080;25.550;2023-05-08T09:01:29;99608.67;;;22.42;46.61
37066;BME280;22981;43.080;25.550;2023-05-08T09:03:58;99606.66;;;22.50;46.21
37066;BME280;22981;43.080;25.550;2023-05-08T09:06:26;99612.28;;;22.57;46.04
37066;BME280;22981;43.080;25.550;2023-05-08T09:08:55;99608.19;;;22.57;46.24
37066;BME280;22981;43.080;25.550;2023-05-08T09:11:23;99607.84;;;22.44;46.91
37066;BME280;22981;43.080;25.550;2023-05-08T09:13:51;99604.64;;;22.40;46.37
37066;BME280;22981;43.080;25.550;2023-05-08T09:16:19;99608.27;;;22.33;46.53
37066;BME280;22981;43.080;25.550;2023-05-08T09:18:46;99605.02;;;22.31;46.73
37066;BME280;22981;43.080;25.550;2023-05-08T09:21:14;99602.09;;;22.27;46.88
37066;BME280;22981;43.080;25.550;2023-05-08T09:24:01;99600.92;;;22.31;46.96
37066;BME280;22981;43.080;25.550;2023-05-08T09:26:34;99606.33;;;22.36;46.48
37066;BME280;22981;43.080;25.550;2023-05-08T09:29:20;99600.27;;;22.39;46.32
37066;BME280;22981;43.080;25.550;2023-05-08T09:31:50;99597.98;;;22.46;46.19
37066;BME280;22981;43.080;25.550;2023-05-08T09:34:26;99595.55;;;22.63;45.73
37066;BME280;22981;43.080;25.550;2023-05-08T09:36:55;99597.75;;;22.80;45.03
37066;BME280;22981;43.080;25.550;2023-05-08T09:39:24;99597.88;;;22.91;44.61
37066;BME280;22981;43.080;25.550;2023-05-08T09:42:00;99591.47;;;22.98;44.56
37066;BME280;22981;43.080;25.550;2023-05-08T09:44:28;99592.83;;;23.15;43.91
37066;BME280;22981;43.080;25.550;2023-05-08T09:47:17;99583.92;;;23.26;43.07
37066;BME280;22981;43.080;25.550;2023-05-08T09:52:35;99578.41;;;23.42;43.29
37066;BME280;22981;43.080;25.550;2023-05-08T09:55:05;99571.16;;;23.51;43.11
37066;BME280;22981;43.080;25.550;2023-05-08T09:57:36;99567.89;;;23.65;43.11
37066;BME280;22981;43.080;25.550;2023-05-08T10:00:12;99569.84;;;23.76;42.81
37066;BME280;22981;43.080;25.550;2023-05-08T10:02:41;99562.62;;;23.83;42.87
37066;BME280;22981;43.080;25.550;2023-05-08T10:05:27;99566.31;;;23.76;42.61
37066;BME280;22981;43.080;25.550;2023-05-08T10:07:58;99564.20;;;23.72;43.11
37066;BME280;22981;43.080;25.550;2023-05-08T10:10:28;99560.34;;;23.87;43.00
37066;BME280;22981;43.080;25.550;2023-05-08T10:12:57;99559.51;;;24.01;42.72
37066;BME280;22981;43.080;25.550;2023-05-08T10:15:31;99553.63;;;24.07;42.00
37066;BME280;22981;43.080;25.550;2023-05-08T10:18:02;99547.97;;;24.04;41.68
37066;BME280;22981;43.080;25.550;2023-05-08T10:20:37;99551.75;;;24.05;41.66
37066;BME280;22981;43.080;25.550;2023-05-08T10:23:06;99547.72;;;24.03;41.24
37066;BME280;22981;43.080;25.550;2023-05-08T10:25:37;99545.07;;;23.97;41.12
37066;BME280;22981;43.080;25.550;2023-05-08T10:28:22;99552.90;;;23.90;41.28
37066;BME280;22981;43.080;25.550;2023-05-08T10:30:51;99545.88;;;23.73;41.27
37066;BME280;22981;43.080;25.550;2023-05-08T10:33:21;99547.20;;;23.45;41.79
37066;BME280;22981;43.080;25.550;2023-05-08T10:35:49;99549.50;;;23.24;42.62
37066;BME280;22981;43.080;25.550;2023-05-08T10:38:18;99549.73;;;23.12;43.11
37066;BME280;22981;43.080;25.550;2023-05-08T10:40:47;99543.91;;;23.02;43.44
37066;BME280;22981;43.080;25.550;2023-05-08T10:43:18;99546.33;;;23.04;43.13
37066;BME280;22981;43.080;25.550;2023-05-08T10:45:47;99541.30;;;23.11;43.17
37066;BME280;22981;43.080;25.550;2023-05-08T10:56:27;99545.34;;;23.85;42.50
37066;BME280;22981;43.080;25.550;2023-05-08T10:58:56;99548.33;;;23.99;42.17
37066;BME280;22981;43.080;25.550;2023-05-08T11:01:24;99547.53;;;24.10;41.63
37066;BME280;22981;43.080;25.550;2023-05-08T11:03:53;99548.81;;;24.15;41.71
37066;BME280;22981;43.080;25.550;2023-05-08T11:06:43;99556.17;;;24.29;41.87
37066;BME280;22981;43.080;25.550;2023-05-08T11:09:22;99543.41;;;24.35;41.14
37066;BME280;22981;43.080;25.550;2023-05-08T11:14:38;99550.58;;;24.34;41.47
37066;BME280;22981;43.080;25.550;2023-05-08T11:17:07;99553.23;;;24.25;42.04
37066;BME280;22981;43.080;25.550;2023-05-08T11:19:36;99555.65;;;24.02;42.06
37066;BME280;22981;43.080;25.550;2023-05-08T11:22:12;99554.66;;;23.84;42.37
37066;BME280;22981;43.080;25.550;2023-05-08T11:24:49;99560.20;;;23.81;42.38
37066;BME280;22981;43.080;25.550;2023-05-08T11:27:17;99563.47;;;23.81;42.48
37066;BME280;22981;43.080;25.550;2023-05-08T11:29:44;99559.44;;;23.78;42.63
37066;BME280;22981;43.080;25.550;2023-05-08T11:32:13;99564.34;;;23.79;42.91
37066;BME280;22981;43.080;25.550;2023-05-08T11:34:45;99575.59;;;23.77;43.12
37066;BME280;22981;43.080;25.550;2023-05-08T11:37:22;99564.83;;;23.81;43.36
37066;BME280;22981;43.080;25.550;2023-05-08T11:39:50;99575.83;;;23.92;43.26
37066;BME280;22981;43.080;25.550;2023-05-08T11:45:05;99565.48;;;23.89;42.87
37066;BME280;22981;43.080;25.550;2023-05-08T11:47:41;99575.16;;;23.84;42.92
37066;BME280;22981;43.080;25.550;2023-05-08T11:50:11;99584.06;;;23.89;42.93
37066;BME280;22981;43.080;25.550;2023-05-08T11:52:40;99576.34;;;23.94;42.71
37066;BME280;22981;43.080;25.550;2023-05-08T11:55:11;99583.70;;;23.93;42.69
37066;BME280;22981;43.080;25.550;2023-05-08T11:57:41;99582.92;;;23.79;42.69
37066;BME280;22981;43.080;25.550;2023-05-08T12:00:10;99579.53;;;23.55;43.02
37066;BME280;22981;43.080;25.550;2023-05-08T12:02:39;99580.91;;;23.24;43.11
37066;BME280;22981;43.080;25.550;2023-05-08T12:05:08;99581.07;;;23.01;43.29
37066;BME280;22981;43.080;25.550;2023-05-08T12:07:43;99589.25;;;22.82;43.42
37066;BME280;22981;43.080;25.550;2023-05-08T12:10:12;99590.66;;;22.63;43.81
37066;BME280;22981;43.080;25.550;2023-05-08T12:12:40;99595.28;;;22.43;44.08
37066;BME280;22981;43.080;25.550;2023-05-08T12:15:13;99598.32;;;22.23;44.36
37066;BME280;22981;43.080;25.550;2023-05-08T12:17:41;99595.25;;;22.06;44.50
37066;BME280;22981;43.080;25.550;2023-05-08T12:20:16;99609.28;;;21.94;44.53
37066;BME280;22981;43.080;25.550;2023-05-08T12:22:51;99610.75;;;21.84;44.60
37066;BME280;22981;43.080;25.550;2023-05-08T12:25:19;99613.34;;;21.72;44.85
37066;BME280;22981;43.080;25.550;2023-05-08T12:27:47;99617.83;;;21.61;45.09
37066;BME280;22981;43.080;25.550;2023-05-08T12:30:15;99622.28;;;21.52;45.47
37066;BME280;22981;43.080;25.550;2023-05-08T12:32:43;99626.73;;;21.42;45.59
37066;BME280;22981;43.080;25.550;2023-05-08T12:35:11;99631.14;;;21.36;45.61
37066;BME280;22981;43.080;25.550;2023-05-08T12:37:39;99633.91;;;21.28;45.88
37066;BME280;22981;43.080;25.550;2023-05-08T12:40:20;99630.67;;;21.23;46.20
37066;BME280;22981;43.080;25.550;2023-05-08T12:42:49;99634.81;;;21.18;46.61
37066;BME280;22981;43.080;25.550;2023-05-08T12:47:49;99627.66;;;20.96;47.52
37066;BME280;22981;43.080;25.550;2023-05-08T12:50:18;99626.13;;;20.82;48.08
37066;BME280;22981;43.080;25.550;2023-05-08T12:52:51;99635.44;;;20.73;48.54
37066;BME280;22981;43.080;25.550;2023-05-08T12:55:26;99647.43;;;20.67;48.83
37066;BME280;22981;43.080;25.550;2023-05-08T12:58:08;99653.76;;;20.58;48.96
37066;BME280;22981;43.080;25.550;2023-05-08T13:00:45;99659.27;;;20.40;49.08
37066;BME280;22981;43.080;25.550;2023-05-08T13:03:26;99674.85;;;20.19;49.47
37066;BME280;22981;43.080;25.550;2023-05-08T13:05:56;99677.61;;;20.04;49.86
37066;BME280;22981;43.080;25.550;2023-05-08T13:08:36;99680.09;;;19.90;49.92
37066;BME280;22981;43.080;25.550;2023-05-08T13:11:05;99685.30;;;19.79;50.37
37066;BME280;22981;43.080;25.550;2023-05-08T13:13:33;99683.97;;;19.66;50.50
37066;BME280;22981;43.080;25.550;2023-05-08T13:16:03;99683.39;;;19.59;50.63
37066;BME280;22981;43.080;25.550;2023-05-08T13:18:31;99689.66;;;19.49;50.78
37066;BME280;22981;43.080;25.550;2023-05-08T13:21:01;99692.92;;;19.41;50.77
37066;BME280;22981;43.080;25.550;2023-05-08T13:23:29;99695.06;;;19.31;50.93
37066;BME280;22981;43.080;25.550;2023-05-08T13:25:56;99695.89;;;19.16;51.06
37066;BME280;22981;43.080;25.550;2023-05-08T13:28:24;99706.19;;;19.09;51.16
37066;BME280;22981;43.080;25.550;2023-05-08T13:30:51;99715.14;;;19.05;51.24
37066;BME280;22981;43.080;25.550;2023-05-08T13:33:19;99712.42;;;18.99;51.48